Jovita, Washington
Current Conditions -  °F | °C
As of 2:53 PM on Friday 28 Nov 2014 (Local Time) from KTCM Reporting Station
Light Rain Light Rain  
Wind Chill: 41°   Ceiling: 600
Heat Index: 41°   Visibility: 8mi
Dew Point: 41°   Wind: 3mph
Humidity: 100%   Direction: 50°NE
Pressure: 29.48"   Gusts: NA
Location:  47.1905°N, 122.328°W
Report Text: KTCM 282253Z AUTO 05003KT 8SM -RA OVC006 05/05 A2948 RMK AO2 $
Loading
Personal Weather Stations






























Interactive Weather Map New forecast layout! Learn more

10-Day Weather Forecast

Advertisements
Track Severe Weather on mobile